Portada
METAR-TAF:

METAR-TAF

Aeropuertos :

Aeropuerto de Murcia-San Javier

Murcia, España

latitud: 37-47N, longitud: 000-48W, altitud: 5 m

Observación

El informe se hizo hace 28 minutos, a las 04:00 UTC
Viento 3 kt del suroeste
Temperatura 23°C
Humedad 89%
Presión 1011 hPa
Visibilidad: 7000 m

METAR: LELC 300400Z AUTO 22003KT 7000 NCD 23/21 Q1011

Hora: 06:28 (04:28 UTC)

Pronóstico

El informe se hizo hace 5 horas y 28 minutos, a las 23:00 UTC
Pronóstico válido del 30 a las 00 UTC al 30 a las 24 UTC
Viento 5 kt del sur-suroeste
Visibilidad 10 km o más
sin nubes por debajo de 1500 m y sin presencia de cumulonimbus.
Probabilidad 30% :
Temporalmente
del 30 a las 00 UTC al 30 a las 08 UTC
Cielo nuboso a una altura de 1200 ft

TAF: LELC 292300Z 3000/3024 21005KT CAVOK TX33/3015Z TN22/3006Z PROB30 TEMPO 3000/3008 BKN012

Observaciones y pronósticos meteorológicos de más de 4000 aeropuertos (mensajes METAR y TAF).

Los puntos amarillos y rojos representan las estaciones disponibles.

Ponga el ratón en el punto deseado para ver el nombre de la estación.

Haga clic para ver las observaciones y los pronósticos meteorológicos.

Para cambiar el mapa : haga clic en los botones verdes con una cruz de color negro para hacer un zoom, en el botón verde con un guión para alejar o en las flechas verdes para mapas adyacentes.


METAR-TAF: